UAL933 EDDF-KIAD
Flight info
| Callsign | UAL933 |
|---|---|
| Flight time | N/A |
| Altitude | 36000 |
| Route | OBOKA3D/07C OBOKA Z28 DIBIR DCT BUDIP DCT BERGI DCT TOPPA DCT FINDO/N0477F380 DCT ETILO/M083F380 DCT 5930N02000W 60N030W 59N040W 57N050W DCT HOIST/N0477F380 N748B QUBIS/N0473F400 DCT CBIRD DCT KJOHN DCT ALB HYPER9 |
| Aircraft | B772/H-SDE2E3FGHIJ5LORVWXY/LB1D1 |
Departure
| Time | 2026-04-14 16:15 |
|---|---|
| Airport | Frankfurt Main Airport (EDDF) |
Arrival
| Time | N/A |
|---|---|
| Airport | Washington Dulles International Airport (KIAD) |
| Time | Latitude | Longitude | Altitude | Speed | Heading |
|---|---|---|---|---|---|
| 2026-04-14 15:36 | 50.04642 | 8.56652 | 366 ft | 0 kts | 115° |
| 2026-04-14 15:59 | 50.04648 | 8.56635 | 366 ft | 2 kts | 115° |
| 2026-04-14 15:59 | 50.04654 | 8.56613 | 366 ft | 2 kts | 115° |
| 2026-04-14 15:59 | 50.04660 | 8.56592 | 366 ft | 2 kts | 115° |
| 2026-04-14 15:59 | 50.04666 | 8.56571 | 366 ft | 2 kts | 115° |
| 2026-04-14 16:00 | 50.04673 | 8.56551 | 366 ft | 2 kts | 133° |
| 2026-04-14 16:00 | 50.04685 | 8.56540 | 366 ft | 2 kts | 176° |
| 2026-04-14 16:00 | 50.04689 | 8.56540 | 366 ft | 1 kts | 187° |
| 2026-04-14 16:00 | 50.04662 | 8.56520 | 365 ft | 7 kts | 208° |
| 2026-04-14 16:01 | 50.04620 | 8.56489 | 365 ft | 4 kts | 206° |
| 2026-04-14 16:01 | 50.04608 | 8.56480 | 365 ft | 0 kts | 206° |
| 2026-04-14 16:01 | 50.04605 | 8.56477 | 365 ft | 0 kts | 205° |
| 2026-04-14 16:05 | 50.04599 | 8.56474 | 365 ft | 2 kts | 205° |
| 2026-04-14 16:06 | 50.04567 | 8.56450 | 365 ft | 7 kts | 205° |
| 2026-04-14 16:06 | 50.04516 | 8.56382 | 364 ft | 11 kts | 241° |
| 2026-04-14 16:06 | 50.04485 | 8.56255 | 363 ft | 12 kts | 250° |
| 2026-04-14 16:06 | 50.04455 | 8.56123 | 363 ft | 13 kts | 251° |
| 2026-04-14 16:07 | 50.04398 | 8.56029 | 362 ft | 12 kts | 181° |
| 2026-04-14 16:07 | 50.04317 | 8.56074 | 362 ft | 12 kts | 146° |
| 2026-04-14 16:07 | 50.04292 | 8.56188 | 362 ft | 10 kts | 111° |
| 2026-04-14 16:07 | 50.04230 | 8.56246 | 362 ft | 7 kts | 160° |
| 2026-04-14 16:08 | 50.04185 | 8.56272 | 361 ft | 5 kts | 160° |
| 2026-04-14 16:08 | 50.04147 | 8.56285 | 361 ft | 5 kts | 192° |
| 2026-04-14 16:08 | 50.04115 | 8.56223 | 361 ft | 9 kts | 246° |
| 2026-04-14 16:08 | 50.04089 | 8.56116 | 360 ft | 11 kts | 250° |
| 2026-04-14 16:09 | 50.04062 | 8.56001 | 360 ft | 11 kts | 250° |
| 2026-04-14 16:09 | 50.04033 | 8.55882 | 359 ft | 11 kts | 250° |
| 2026-04-14 16:09 | 50.04002 | 8.55755 | 358 ft | 13 kts | 249° |
| 2026-04-14 16:09 | 50.03966 | 8.55609 | 358 ft | 14 kts | 250° |
| 2026-04-14 16:10 | 50.03931 | 8.55464 | 357 ft | 14 kts | 250° |
| 2026-04-14 16:10 | 50.03898 | 8.55323 | 356 ft | 14 kts | 250° |
| 2026-04-14 16:10 | 50.03864 | 8.55177 | 355 ft | 14 kts | 250° |
| 2026-04-14 16:10 | 50.03830 | 8.55031 | 355 ft | 14 kts | 250° |
| 2026-04-14 16:11 | 50.03799 | 8.54904 | 354 ft | 8 kts | 249° |
| 2026-04-14 16:11 | 50.03778 | 8.54822 | 353 ft | 3 kts | 250° |
| 2026-04-14 16:11 | 50.03769 | 8.54783 | 353 ft | 4 kts | 250° |
| 2026-04-14 16:11 | 50.03754 | 8.54739 | 353 ft | 5 kts | 225° |
| 2026-04-14 16:12 | 50.03719 | 8.54712 | 352 ft | 6 kts | 196° |
| 2026-04-14 16:12 | 50.03680 | 8.54715 | 352 ft | 0 kts | 160° |
| 2026-04-14 16:13 | 50.03671 | 8.54720 | 352 ft | 4 kts | 160° |
| 2026-04-14 16:13 | 50.03621 | 8.54748 | 352 ft | 9 kts | 160° |
| 2026-04-14 16:13 | 50.03583 | 8.54776 | 351 ft | 3 kts | 110° |
| 2026-04-14 16:14 | 50.03601 | 8.54880 | 352 ft | 27 kts | 69° |
| 2026-04-14 16:14 | 50.03750 | 8.55498 | 356 ft | 94 kts | 70° |
| 2026-04-14 16:14 | 50.04044 | 8.56733 | 363 ft | 153 kts | 69° |
| 2026-04-14 16:14 | 50.04449 | 8.58469 | 677 ft | 178 kts | 70° |
| 2026-04-14 16:15 | 50.04843 | 8.60175 | 1407 ft | 176 kts | 69° |
| 2026-04-14 16:15 | 50.05260 | 8.62030 | 1778 ft | 186 kts | 70° |
| 2026-04-14 16:15 | 50.05701 | 8.64011 | 1962 ft | 202 kts | 69° |
| 2026-04-14 16:15 | 50.06188 | 8.66189 | 2212 ft | 221 kts | 69° |
| 2026-04-14 16:16 | 50.06702 | 8.68492 | 2581 ft | 236 kts | 68° |
| 2026-04-14 16:16 | 50.07407 | 8.70458 | 2937 ft | 246 kts | 48° |
| 2026-04-14 16:16 | 50.08939 | 8.72186 | 3603 ft | 250 kts | 26° |
| 2026-04-14 16:16 | 50.10470 | 8.73252 | 4286 ft | 251 kts | 23° |
| 2026-04-14 16:17 | 50.12083 | 8.74327 | 4916 ft | 255 kts | 23° |
| 2026-04-14 16:17 | 50.13704 | 8.75416 | 5583 ft | 256 kts | 24° |
| 2026-04-14 16:17 | 50.15340 | 8.76521 | 6249 ft | 257 kts | 23° |
| 2026-04-14 16:17 | 50.16994 | 8.77642 | 6841 ft | 261 kts | 23° |
| 2026-04-14 16:18 | 50.18689 | 8.78790 | 7173 ft | 271 kts | 23° |
| 2026-04-14 16:18 | 50.20406 | 8.79954 | 7841 ft | 271 kts | 23° |
| 2026-04-14 16:18 | 50.22138 | 8.81130 | 8458 ft | 274 kts | 23° |
| 2026-04-14 16:18 | 50.23946 | 8.82168 | 8935 ft | 279 kts | 9° |
| 2026-04-14 16:19 | 50.25875 | 8.82134 | 9435 ft | 282 kts | 345° |
| 2026-04-14 16:19 | 50.27664 | 8.80833 | 9966 ft | 284 kts | 320° |
| 2026-04-14 16:19 | 50.28940 | 8.78519 | 10450 ft | 288 kts | 298° |
| 2026-04-14 16:19 | 50.29726 | 8.75554 | 10686 ft | 304 kts | 289° |
| 2026-04-14 16:20 | 50.30413 | 8.72335 | 10925 ft | 320 kts | 288° |
| 2026-04-14 16:20 | 50.31143 | 8.68913 | 11193 ft | 336 kts | 289° |
| 2026-04-14 16:20 | 50.31903 | 8.65406 | 11472 ft | 351 kts | 289° |
| 2026-04-14 16:20 | 50.32704 | 8.61727 | 11781 ft | 365 kts | 289° |
| 2026-04-14 16:21 | 50.33527 | 8.57956 | 12311 ft | 372 kts | 289° |
| 2026-04-14 16:21 | 50.34365 | 8.54104 | 12965 ft | 375 kts | 290° |
| 2026-04-14 16:21 | 50.35211 | 8.50208 | 13592 ft | 378 kts | 290° |
| 2026-04-14 16:21 | 50.36056 | 8.46311 | 14202 ft | 382 kts | 290° |
| 2026-04-14 16:22 | 50.36877 | 8.42361 | 14797 ft | 385 kts | 286° |
| 2026-04-14 16:22 | 50.37340 | 8.38204 | 15350 ft | 391 kts | 276° |
| 2026-04-14 16:22 | 50.37317 | 8.33959 | 15929 ft | 395 kts | 265° |
| 2026-04-14 16:22 | 50.36796 | 8.29722 | 16511 ft | 400 kts | 255° |
| 2026-04-14 16:23 | 50.35981 | 8.25537 | 17091 ft | 403 kts | 254° |
| 2026-04-14 16:23 | 50.35146 | 8.21385 | 17614 ft | 406 kts | 253° |
| 2026-04-14 16:23 | 50.34295 | 8.17164 | 18166 ft | 409 kts | 254° |
| 2026-04-14 16:23 | 50.33446 | 8.12948 | 18712 ft | 411 kts | 254° |
| 2026-04-14 16:24 | 50.32579 | 8.08649 | 19196 ft | 415 kts | 254° |
| 2026-04-14 16:24 | 50.31711 | 8.04353 | 19687 ft | 418 kts | 254° |
| 2026-04-14 16:24 | 50.30848 | 8.00013 | 20157 ft | 421 kts | 256° |
| 2026-04-14 16:24 | 50.30306 | 7.95518 | 20601 ft | 422 kts | 266° |
| 2026-04-14 16:25 | 50.30252 | 7.90984 | 21051 ft | 422 kts | 276° |
| 2026-04-14 16:25 | 50.30694 | 7.86427 | 21525 ft | 423 kts | 285° |
| 2026-04-14 16:25 | 50.31615 | 7.82063 | 21974 ft | 423 kts | 294° |